Airfield :
LOGIN :

Register | Disclaimer

   EN    FR    IT 

 










Legend :    VFR   Marginal VFR   IFR   Intensive IFR   Very Intensive IFR
Visi :
Ceiling :
>= 8 km
>= 3000ft
5 to 8 km
1000 to 3000 ft
1500m to 5 km
500 to 1000 ft
800 to 1500m
200 to 500 ft
< 800m
< 200 ft
Symbols :   Thunderstorms  Fog  Heavy snow  Heavy precipitations  Wind > 20 kt
SIGMETs :     Misc.  Thunderstorms  Icing  Turbulence  Mountain Waves  Volcanic Ashes






- Airport Elevation : 75 ft
- IATA code : YEO


EGDY - RNAS Yeovilton

CURRENT METAR :
  • 090850Z 21005KT 9999 FEW032 BKN150 05/01 Q1004 NOSIG RMK BLU BLU

EXPIRED METARs :
  • 090821Z 22005KT 9999 FEW032 SCT150 BKN200 04/01 Q1004 NOSIG RMK BLU BLU
  • 090750Z 24007KT 9999 FEW014 BKN200 05/01 Q1004 NOSIG RMK BLU BLU
  • 090720Z 25008KT 9999 FEW032 BKN200 05/01 Q1003 NOSIG RMK BLU BLU
  • 090650Z 25008KT 9999 FEW032 BKN200 05/01 Q1003 NOSIG RMK BLU BLU
  • 090621Z 23006KT 9999 FEW032 SCT200 04/00 Q1003 NOSIG RMK BLU BLU

TAF TAF EGDY
Valid from the 09 at 09:00 until the 09 at 18:00 UTC


090803Z 0909/0918 23007KT 9999 SCT030
BECMG 0913/0916 16005KT 7000 -RA SCT018 BKN025
TEMPO 0914/0917 4000 RADZ
BECMG 0916/0918 22010KT 9999 NSW SCT030



MET'MAP, your aeronautical weather chart ! - Copyright ORBIFLY December 2007 - Disclaimer

ORBIFLY MET'MAP TEAM :

Programming & Development : Alexandra Zaïnal
Concept & original design : Baudouin d'Aumeries
Assistance for programming : Marc-Olivier Méhu
Technical & hardware support : Manuel Goepfert

Contact : metmap@orbifly.com




SOURCES & CREDITS :

   NOAA